METAR AND TAF INFORMATION
METAR FOR UDYZ
ADDS - METARS form results

(0947 UTC 16 October 2018)
Data provider http://aviationweather.gov/metar/data/
 
METAR text: UDYZ 160930Z VRB01KT 9999 NSC 23/01 Q1023 R09/010070 NOSIG
Conditions at: UDYZ (ZVARTNOTS , AM) observed 0930 UTC 16 October 2018
Temperature: 23.0°C (73°F)
Dewpoint: 1.0°C (34°F) [RH = 23%]
Pressure (altimeter): 30.21 inches Hg (1023.0 mb)
Winds: variable direction winds at 1 MPH (1 knots; 0.5 m/s)
Visibility: 6 or more miles (10+ km)
Ceiling: at least 12,000 feet AGL
Clouds: sky clear below 12,000 feet AGL
Weather: no significant weather observed at this time

METAR text: UDYZ 160900Z VRB02KT 9999 NSC 22/02 Q1024 R09/010070 NOSIG
Conditions at: UDYZ (ZVARTNOTS , AM) observed 0900 UTC 16 October 2018
Temperature: 22.0°C (72°F)
Dewpoint: 2.0°C (36°F) [RH = 27%]
Pressure (altimeter): 30.24 inches Hg (1024.0 mb)
Winds: variable direction winds at 2 MPH (2 knots; 1.0 m/s)
Visibility: 6 or more miles (10+ km)
Ceiling: at least 12,000 feet AGL
Clouds: sky clear below 12,000 feet AGL
Weather: no significant weather observed at this time

Forecast for: UDYZ (ZVARTNOTS , AM)
Text: TAF UDYZ 160508Z 1606/1706 16006KT CAVOK
Forecast period: 0600 UTC 16 October 2018 to 0600 UTC 17 October 2018
Forecast type: FROM: standard forecast or significant change
Winds: from the SSE (160 degrees) at 7 MPH (6 knots; 3.1 m/s)
Visibility: 6 or more miles 10+ km)
Ceiling: unknown
Clouds: missing
Weather: NSW  (no significant weather)
Text: TEMPO 1612/1621 VRB16KT FEW040CB
Forecast period: 1200 to 2100 UTC 16 October 2018
Forecast type: TEMPORARY: The following changes expected for less than half the time period
Winds: variable direction winds at 18 MPH (16 knots; 8.2 m/s)
Visibility: missing
Ceiling: at least 12,000 feet AGL
Clouds: few clouds at 4000 feet AGL
Weather: no significant weather forecast for this period

 AIRPORT MAP

 RUNWAY INFORMATION
Runway 09 Runway length 12629 ft Runway width 184 ft
Runway elevation 2800 ft Runway displaced threshold 0 ft Runway heading 90
Runway 27 Runway length 12629 ft Runway width 184 ft
Runway elevation 2838 ft Runway displaced threshold 0 ft Runway heading 270

 AIRPORT FREQUENCIES
Type APP Name YEREVAN AP Frequency 126 MHZ
Type ATIS Name ATIS Frequency 119.5 MHZ
Type GND Name YEREVAN GN Frequency 119 MHZ
Type TWR Name YEREVAN TW Frequency 128 MHZ

 AIRPORT NEAR NAVIGATION AIDS



Copyright © 2011 - 2018 BirgenAir Virtual Airlines. All rights reserved. Developed by Goktug Unver